Time;durP1;ratioP1;P1;durP2;ratioP2;P2;SDS_P1;SDS_P2;PMS_P1;PMS_P2;Temp;Humidity;BMP_temperature;BMP_pressure;BME280_temperature;BME280_humidity;BME280_pressure;Samples;Min_cycle;Max_cycle;Signal;HPM_P1;HPM_P2
2022/05/08 00:01:08;;;;;;;21.58;17.15;;;8.90;92.30;;;;;;5056494;28;20044;-69
2022/05/08 00:03:35;;;;;;;21.58;17.35;;;8.90;92.50;;;;;;5050231;28;20053;-69
2022/05/08 00:06:10;;;;;;;24.65;19.00;;;8.90;92.80;;;;;;5053278;28;20318;-70
2022/05/08 00:08:37;;;;;;;21.02;17.70;;;8.80;93.10;;;;;;5053287;28;20349;-68
2022/05/08 00:11:03;;;;;;;20.30;17.10;;;8.90;93.10;;;;;;5035634;28;20063;-70
2022/05/08 00:13:31;;;;;;;21.67;16.63;;;8.80;93.10;;;;;;5053120;28;20051;-69
2022/05/08 00:15:57;;;;;;;21.40;16.92;;;8.70;93.00;;;;;;5050949;28;20052;-69
2022/05/08 00:18:23;;;;;;;22.25;16.40;;;8.70;92.60;;;;;;5053455;28;20056;-69
2022/05/08 00:20:48;;;;;;;17.85;14.27;;;8.70;92.50;;;;;;5052198;28;20124;-69
2022/05/08 00:23:17;;;;;;;17.55;15.02;;;8.80;92.60;;;;;;5052117;28;20465;-69
2022/05/08 00:25:42;;;;;;;18.63;14.93;;;8.80;92.50;;;;;;5045036;28;20036;-69
2022/05/08 00:28:11;;;;;;;19.38;14.77;;;8.80;92.60;;;;;;5049768;28;20087;-69
2022/05/08 00:30:36;;;;;;;18.20;13.23;;;8.80;93.20;;;;;;5053852;28;20059;-68
2022/05/08 00:33:05;;;;;;;17.52;13.57;;;8.80;93.10;;;;;;5055389;28;20386;-68
2022/05/08 00:35:31;;;;;;;16.48;13.13;;;8.70;93.10;;;;;;5051737;28;20383;-69
2022/05/08 00:37:56;;;;;;;14.20;11.93;;;8.70;92.70;;;;;;5057074;28;20025;-68
2022/05/08 00:40:22;;;;;;;16.45;12.95;;;8.60;92.90;;;;;;5053657;28;20021;-69
2022/05/08 00:42:47;;;;;;;18.35;14.73;;;8.60;92.90;;;;;;5055489;28;20037;-67
2022/05/08 00:45:14;;;;;;;19.00;15.20;;;8.50;93.20;;;;;;5054726;28;20321;-68
2022/05/08 00:47:40;;;;;;;21.20;14.68;;;8.30;92.80;;;;;;5060953;28;20055;-68
2022/05/08 00:50:06;;;;;;;18.15;13.90;;;8.30;92.00;;;;;;5064939;28;20064;-69
2022/05/08 00:52:35;;;;;;;14.98;12.23;;;8.40;91.90;;;;;;5055809;28;20037;-67
2022/05/08 00:55:01;;;;;;;15.07;12.60;;;8.50;91.50;;;;;;5054714;28;20086;-68
2022/05/08 00:57:27;;;;;;;17.10;13.25;;;8.60;91.60;;;;;;5053207;28;20480;-68
2022/05/08 00:59:53;;;;;;;16.52;12.95;;;8.60;92.30;;;;;;5053538;28;20052;-68
2022/05/08 01:02:19;;;;;;;15.90;13.20;;;8.60;92.20;;;;;;5051371;28;20044;-68
2022/05/08 01:04:45;;;;;;;15.38;12.23;;;8.60;92.30;;;;;;5054880;28;20025;-68
2022/05/08 01:07:11;;;;;;;15.93;12.40;;;8.60;92.50;;;;;;5052216;28;20111;-68
2022/05/08 01:09:37;;;;;;;16.80;11.63;;;8.50;92.30;;;;;;5052893;28;20052;-68
2022/05/08 01:12:03;;;;;;;15.63;12.60;;;8.60;92.20;;;;;;5024249;28;20410;-68
2022/05/08 01:14:29;;;;;;;16.90;13.63;;;8.50;92.30;;;;;;5053332;28;20025;-69
2022/05/08 01:16:54;;;;;;;16.30;13.15;;;8.50;92.40;;;;;;5051610;28;20033;-68
2022/05/08 01:19:20;;;;;;;14.80;11.75;;;8.40;92.50;;;;;;5049092;28;21241;-68
2022/05/08 01:21:46;;;;;;;15.75;12.48;;;8.30;92.70;;;;;;5050605;28;20117;-68
2022/05/08 01:24:20;;;;;;;13.95;11.73;;;8.20;92.60;;;;;;5026885;28;20025;-69
2022/05/08 01:26:46;;;;;;;16.95;12.20;;;8.10;92.10;;;;;;5050280;28;20120;-68
2022/05/08 01:29:12;;;;;;;15.85;12.88;;;8.00;92.00;;;;;;5050332;28;20104;-68
2022/05/08 01:31:37;;;;;;;15.43;12.55;;;8.00;91.90;;;;;;5050304;28;20306;-68
2022/05/08 01:34:03;;;;;;;15.85;13.73;;;8.00;90.80;;;;;;5044057;28;20116;-69
2022/05/08 01:36:29;;;;;;;16.55;12.23;;;8.20;90.00;;;;;;5048927;28;20056;-69
2022/05/08 01:38:56;;;;;;;16.13;13.00;;;8.30;90.10;;;;;;5053984;28;20025;-69
2022/05/08 01:41:22;;;;;;;16.55;13.52;;;8.40;90.70;;;;;;5046670;28;20013;-69
2022/05/08 01:43:47;;;;;;;18.48;13.60;;;8.30;90.90;;;;;;5041902;28;20033;-69
2022/05/08 01:46:13;;;;;;;16.33;13.05;;;8.30;90.30;;;;;;5048902;28;20075;-69
2022/05/08 01:48:39;;;;;;;18.05;14.15;;;8.30;90.30;;;;;;5053719;28;20028;-69
2022/05/08 01:51:05;;;;;;;16.70;13.98;;;8.40;90.00;;;;;;5052701;28;20037;-68
2022/05/08 01:53:35;;;;;;;18.10;14.48;;;8.50;90.00;;;;;;5051314;28;20151;-69
2022/05/08 01:56:05;;;;;;;15.40;12.80;;;8.50;90.40;;;;;;5048171;28;20028;-69
2022/05/08 01:58:30;;;;;;;14.85;12.48;;;8.50;91.00;;;;;;5054008;28;20037;-69
2022/05/08 02:01:01;;;;;;;20.50;14.57;;;8.30;90.80;;;;;;5048856;28;20524;-68
2022/05/08 02:03:30;;;;;;;20.48;15.30;;;8.40;90.10;;;;;;5052543;28;20100;-69
2022/05/08 02:05:55;;;;;;;17.20;14.60;;;8.50;90.20;;;;;;5047751;28;20581;-68
2022/05/08 02:08:21;;;;;;;17.98;14.63;;;8.50;90.70;;;;;;5047708;28;20424;-68
2022/05/08 02:10:47;;;;;;;17.73;15.10;;;8.50;90.80;;;;;;5050886;28;20036;-68
2022/05/08 02:13:13;;;;;;;17.63;14.57;;;8.50;91.00;;;;;;5060594;28;20080;-69
2022/05/08 02:15:39;;;;;;;17.63;15.38;;;8.40;91.00;;;;;;5053610;28;20032;-68
2022/05/08 02:18:08;;;;;;;18.58;15.40;;;8.40;90.50;;;;;;5055112;28;20025;-69
2022/05/08 02:20:35;;;;;;;19.35;15.15;;;8.50;90.80;;;;;;5050937;28;20028;-69
2022/05/08 02:23:01;;;;;;;17.50;14.38;;;8.50;91.20;;;;;;5054490;28;20025;-67
2022/05/08 02:25:27;;;;;;;16.77;14.32;;;8.50;91.60;;;;;;5034660;28;20328;-67
2022/05/08 02:27:52;;;;;;;19.88;15.18;;;8.50;92.20;;;;;;5051835;28;20321;-68
2022/05/08 02:30:23;;;;;;;19.83;14.88;;;8.50;92.30;;;;;;5063394;28;20024;-67
2022/05/08 02:32:51;;;;;;;19.15;14.65;;;8.50;92.50;;;;;;5057572;28;20116;-68
2022/05/08 02:35:17;;;;;;;22.08;16.45;;;8.50;92.60;;;;;;5049329;28;20029;-67
2022/05/08 02:37:44;;;;;;;18.30;15.07;;;8.50;92.50;;;;;;5063839;28;20029;-68
2022/05/08 02:40:10;;;;;;;19.75;15.32;;;8.50;92.30;;;;;;5062682;28;20024;-67
2022/05/08 02:42:37;;;;;;;19.70;14.82;;;8.50;92.40;;;;;;5056215;28;20405;-68
2022/05/08 02:45:05;;;;;;;17.73;14.50;;;8.40;92.50;;;;;;5060426;28;20453;-67
2022/05/08 02:47:33;;;;;;;17.48;13.82;;;8.30;92.50;;;;;;5056378;28;20405;-68
2022/05/08 02:49:59;;;;;;;17.30;14.80;;;8.20;91.60;;;;;;5056192;28;20033;-68
2022/05/08 02:52:24;;;;;;;18.73;14.00;;;8.30;91.60;;;;;;5054871;28;20021;-68
2022/05/08 02:54:50;;;;;;;16.17;12.65;;;8.20;91.90;;;;;;5056870;28;20039;-68
2022/05/08 03:00:08;;;;;;;16.65;13.25;;;7.90;92.80;;;;;;5056844;28;20448;-68
2022/05/08 03:02:34;;;;;;;19.03;14.07;;;7.60;93.40;;;;;;5052469;28;20028;-68
2022/05/08 03:05:01;;;;;;;18.85;14.93;;;7.40;92.50;;;;;;5054640;28;20100;-68
2022/05/08 03:07:27;;;;;;;20.02;14.82;;;7.40;91.60;;;;;;5062904;28;20056;-68
2022/05/08 03:09:53;;;;;;;19.67;14.27;;;7.50;90.00;;;;;;5061280;28;20037;-68
2022/05/08 03:12:21;;;;;;;18.35;13.75;;;7.70;89.50;;;;;;5063989;28;20036;-68
2022/05/08 03:14:47;;;;;;;16.40;13.80;;;7.80;89.20;;;;;;5054169;28;20033;-68
2022/05/08 03:17:21;;;;;;;18.55;14.18;;;7.90;89.60;;;;;;5057850;28;20091;-67
2022/05/08 03:19:47;;;;;;;21.15;14.90;;;7.90;90.00;;;;;;5061143;28;20036;-67
2022/05/08 03:22:12;;;;;;;19.30;15.07;;;7.80;90.10;;;;;;5039533;28;20413;-67
2022/05/08 03:24:38;;;;;;;18.92;13.95;;;7.80;89.80;;;;;;5054757;28;20078;-67
2022/05/08 03:27:04;;;;;;;16.58;14.63;;;7.80;89.90;;;;;;5064389;28;20044;-67
2022/05/08 03:29:29;;;;;;;19.00;13.73;;;7.70;90.20;;;;;;5055280;28;20029;-69
2022/05/08 03:31:55;;;;;;;17.38;14.43;;;7.60;89.50;;;;;;5056914;28;20033;-69
2022/05/08 03:34:21;;;;;;;21.00;15.82;;;7.60;88.90;;;;;;5056419;28;20097;-68
2022/05/08 03:36:47;;;;;;;18.90;14.50;;;7.60;88.80;;;;;;5068237;28;20083;-69
2022/05/08 03:39:12;;;;;;;16.70;13.10;;;7.60;88.30;;;;;;5054721;28;20433;-68
2022/05/08 03:41:38;;;;;;;19.27;15.70;;;7.60;88.70;;;;;;5061199;28;20028;-68
2022/05/08 03:44:04;;;;;;;19.63;14.98;;;7.60;88.50;;;;;;5037870;28;20427;-68
2022/05/08 03:46:29;;;;;;;21.20;15.50;;;7.60;88.70;;;;;;5046012;28;20038;-68
2022/05/08 03:48:55;;;;;;;19.52;15.57;;;7.70;87.80;;;;;;5040449;28;20029;-68
2022/05/08 03:51:21;;;;;;;19.33;14.13;;;7.70;88.10;;;;;;5056009;28;20382;-68
2022/05/08 03:53:50;;;;;;;19.27;14.70;;;7.70;88.30;;;;;;5056782;28;20068;-68
2022/05/08 03:56:16;;;;;;;16.90;13.50;;;7.70;88.00;;;;;;5055906;28;20021;-68
2022/05/08 03:58:45;;;;;;;19.70;13.88;;;7.70;88.50;;;;;;5055393;28;20028;-68
2022/05/08 04:01:10;;;;;;;19.52;15.40;;;7.80;88.50;;;;;;5058981;28;20433;-69
2022/05/08 04:03:36;;;;;;;19.20;13.95;;;7.90;87.10;;;;;;5034939;28;20086;-68
2022/05/08 04:06:03;;;;;;;17.02;14.70;;;8.10;87.80;;;;;;5056943;28;20414;-68
2022/05/08 04:08:29;;;;;;;15.82;13.60;;;8.20;89.50;;;;;;5053674;28;20032;-67
2022/05/08 04:10:56;;;;;;;19.73;15.25;;;8.20;90.20;;;;;;5059410;28;20025;-69
2022/05/08 04:13:21;;;;;;;16.77;12.98;;;8.20;90.20;;;;;;5059790;28;20051;-68
2022/05/08 04:18:31;;;;;;;;;;;8.30;92.00;;;;;;5052070;28;20120;-67
2022/05/08 04:20:57;;;;;;;17.02;13.05;;;8.30;92.30;;;;;;5060326;28;20004;-68
2022/05/08 04:26:07;;;;;;;19.40;14.05;;;8.30;92.40;;;;;;5050429;28;20079;-67
2022/05/08 04:28:32;;;;;;;16.48;13.90;;;8.30;92.70;;;;;;5051693;28;20029;-68
2022/05/08 04:30:58;;;;;;;16.38;13.18;;;8.30;92.60;;;;;;5053175;28;20029;-68
2022/05/08 04:33:23;;;;;;;19.05;15.48;;;8.40;92.30;;;;;;5053246;28;20036;-68
2022/05/08 04:35:49;;;;;;;18.33;13.98;;;8.40;92.40;;;;;;5054127;28;20052;-68
2022/05/08 04:38:15;;;;;;;22.38;15.15;;;8.40;92.30;;;;;;5055842;28;20409;-67
2022/05/08 04:40:41;;;;;;;17.80;13.80;;;8.50;92.10;;;;;;5052423;28;20029;-68
2022/05/08 04:43:07;;;;;;;16.80;13.88;;;8.50;91.90;;;;;;5052915;28;20025;-68
2022/05/08 04:45:33;;;;;;;17.55;12.50;;;8.50;92.20;;;;;;5056120;28;20036;-68
2022/05/08 04:47:58;;;;;;;16.05;12.05;;;8.50;92.50;;;;;;5052094;28;20025;-68
2022/05/08 04:50:24;;;;;;;15.57;13.32;;;8.50;92.80;;;;;;5049420;28;20033;-68
2022/05/08 04:52:50;;;;;;;16.17;12.90;;;8.50;92.80;;;;;;5045574;28;20421;-68
2022/05/08 04:55:15;;;;;;;15.35;12.32;;;8.50;92.80;;;;;;5061473;28;20024;-69
2022/05/08 04:57:41;;;;;;;16.15;13.30;;;8.60;92.30;;;;;;5053473;28;20032;-68
2022/05/08 05:00:07;;;;;;;20.92;14.60;;;8.60;92.70;;;;;;5033410;28;20105;-68
2022/05/08 05:02:33;;;;;;;14.73;11.88;;;8.70;93.00;;;;;;5053579;28;20052;-69
2022/05/08 05:05:00;;;;;;;15.63;11.05;;;8.70;93.50;;;;;;5042102;28;20028;-68
2022/05/08 05:07:29;;;;;;;13.77;10.50;;;8.60;93.10;;;;;;5052042;28;20150;-68
2022/05/08 05:09:58;;;;;;;13.00;10.40;;;8.60;93.40;;;;;;5052897;28;20108;-68
2022/05/08 05:12:24;;;;;;;13.50;10.02;;;8.60;93.10;;;;;;5054746;28;20035;-68
2022/05/08 05:14:50;;;;;;;12.30;10.18;;;8.80;92.50;;;;;;5045050;28;20024;-69
2022/05/08 05:17:15;;;;;;;14.70;12.13;;;8.90;93.30;;;;;;5057612;28;20060;-68
2022/05/08 05:19:41;;;;;;;13.23;10.95;;;9.00;94.20;;;;;;5051342;28;20116;-68
2022/05/08 05:22:07;;;;;;;13.05;10.18;;;9.00;94.70;;;;;;5059491;28;20020;-67
2022/05/08 05:24:32;;;;;;;11.93;9.02;;;9.10;95.10;;;;;;5058200;28;20159;-68
2022/05/08 05:27:02;;;;;;;11.88;9.80;;;9.00;94.90;;;;;;5060885;28;20029;-68
2022/05/08 05:29:30;;;;;;;12.13;9.93;;;9.00;94.90;;;;;;5054445;28;20028;-69
2022/05/08 05:31:58;;;;;;;10.77;8.93;;;9.00;94.90;;;;;;5051866;28;20047;-68
2022/05/08 05:34:23;;;;;;;11.40;10.02;;;9.00;94.90;;;;;;5043110;28;20057;-68
2022/05/08 05:36:49;;;;;;;11.07;9.10;;;9.00;95.00;;;;;;5054610;28;20057;-68
2022/05/08 05:39:14;;;;;;;16.00;12.25;;;9.10;94.80;;;;;;5050929;28;20029;-68
2022/05/08 05:41:40;;;;;;;19.55;14.60;;;9.10;94.90;;;;;;5050105;28;20067;-68
2022/05/08 05:44:14;;;;;;;17.52;13.98;;;9.30;94.80;;;;;;5051414;28;20020;-68
2022/05/08 05:49:27;;;;;;;12.27;9.48;;;9.50;94.90;;;;;;5055831;28;20036;-69
2022/05/08 05:51:56;;;;;;;9.57;7.75;;;9.70;95.60;;;;;;5058890;28;20047;-67
2022/05/08 05:54:22;;;;;;;12.10;8.77;;;9.90;95.20;;;;;;5039103;28;20078;-68
2022/05/08 05:56:51;;;;;;;10.57;8.88;;;10.00;95.60;;;;;;5059304;28;20167;-69
2022/05/08 05:59:17;;;;;;;13.00;9.80;;;10.20;97.30;;;;;;5053429;28;20021;-68
2022/05/08 06:01:43;;;;;;;13.45;11.38;;;10.30;97.50;;;;;;5058308;28;20103;-69
2022/05/08 06:04:12;;;;;;;14.63;11.18;;;10.50;98.00;;;;;;5059067;28;20325;-68
2022/05/08 06:06:38;;;;;;;13.48;10.63;;;10.70;98.00;;;;;;5053778;28;20025;-68
2022/05/08 06:09:03;;;;;;;13.02;9.05;;;10.90;98.00;;;;;;5057735;28;20030;-68
2022/05/08 06:11:29;;;;;;;14.25;11.05;;;11.10;98.00;;;;;;5068902;28;21483;-68
2022/05/08 06:13:55;;;;;;;11.70;9.00;;;11.20;98.00;;;;;;5058434;28;20037;-67
2022/05/08 06:16:20;;;;;;;12.23;9.82;;;11.50;98.00;;;;;;5064663;28;20029;-67
2022/05/08 06:18:46;;;;;;;14.82;10.90;;;11.70;98.00;;;;;;5059181;28;20314;-67
2022/05/08 06:21:11;;;;;;;13.45;10.85;;;12.00;98.00;;;;;;5066548;28;20020;-67
2022/05/08 06:23:40;;;;;;;15.48;12.63;;;12.20;98.00;;;;;;5057324;28;20018;-69
2022/05/08 06:26:05;;;;;;;16.52;13.88;;;12.20;98.00;;;;;;5060963;28;20044;-68
2022/05/08 06:28:31;;;;;;;18.25;13.13;;;12.20;98.00;;;;;;5052788;28;20422;-70
2022/05/08 06:30:57;;;;;;;18.27;14.02;;;12.30;98.00;;;;;;5059093;28;20032;-75
2022/05/08 06:33:23;;;;;;;16.20;14.43;;;12.30;98.00;;;;;;5055422;28;20036;-68
2022/05/08 06:35:51;;;;;;;19.33;15.30;;;12.40;98.00;;;;;;5057504;28;20043;-68
2022/05/08 06:38:21;;;;;;;17.23;13.02;;;12.60;98.00;;;;;;5054876;28;20025;-68
2022/05/08 06:40:47;;;;;;;15.18;13.02;;;12.80;98.00;;;;;;5056131;28;20106;-68
2022/05/08 06:43:13;;;;;;;15.68;13.48;;;12.90;98.00;;;;;;5060826;28;20055;-67
2022/05/08 06:45:39;;;;;;;17.05;13.77;;;13.00;98.00;;;;;;5057628;28;20024;-67
2022/05/08 06:48:08;;;;;;;16.10;13.73;;;13.10;97.80;;;;;;5036994;28;20021;-68
2022/05/08 06:50:34;;;;;;;17.85;13.93;;;13.10;97.70;;;;;;5057899;28;20017;-68
2022/05/08 06:53:00;;;;;;;16.17;13.43;;;12.90;97.80;;;;;;5061183;28;20032;-68
2022/05/08 06:55:27;;;;;;;15.82;13.43;;;12.80;98.00;;;;;;5056473;28;20033;-68
2022/05/08 06:57:56;;;;;;;14.68;12.18;;;12.90;98.00;;;;;;5062200;28;20048;-68
2022/05/08 07:03:06;;;;;;;;;;;13.20;97.30;;;;;;5056304;28;20031;-68
2022/05/08 07:05:36;;;;;;;14.50;12.60;;;13.20;97.50;;;;;;5065008;28;19908;-68
2022/05/08 07:08:01;;;;;;;13.90;11.55;;;13.50;97.70;;;;;;5053671;28;20028;-68
2022/05/08 07:10:27;;;;;;;14.02;11.52;;;13.50;96.90;;;;;;5057088;28;20402;-69
2022/05/08 07:12:53;;;;;;;14.25;11.75;;;13.40;97.10;;;;;;5058740;28;20027;-69
2022/05/08 07:15:18;;;;;;;16.38;12.95;;;13.50;97.30;;;;;;5053955;28;20024;-68
2022/05/08 07:17:44;;;;;;;16.33;13.40;;;13.70;97.10;;;;;;5055237;28;20430;-67
2022/05/08 07:20:10;;;;;;;15.63;12.73;;;13.70;96.70;;;;;;5051944;28;20112;-67
2022/05/08 07:22:39;;;;;;;17.17;13.18;;;13.70;96.80;;;;;;5051728;28;20152;-68
2022/05/08 07:25:06;;;;;;;18.50;14.32;;;13.90;96.80;;;;;;5050320;28;20056;-67
2022/05/08 07:27:36;;;;;;;14.80;11.65;;;14.20;96.10;;;;;;5053195;28;20324;-68
2022/05/08 07:30:02;;;;;;;15.30;12.52;;;14.50;96.20;;;;;;5049603;28;20040;-67
2022/05/08 07:32:28;;;;;;;17.55;12.20;;;14.80;95.20;;;;;;5054491;28;20029;-68
2022/05/08 07:37:38;;;;;;;11.77;9.38;;;15.30;93.30;;;;;;5061269;28;20106;-68
2022/05/08 07:40:04;;;;;;;13.10;9.32;;;15.40;93.90;;;;;;5055271;28;20425;-69
2022/05/08 07:42:30;;;;;;;11.27;8.70;;;16.20;92.30;;;;;;5038036;28;20437;-68
2022/05/08 07:44:57;;;;;;;11.65;8.77;;;16.90;89.40;;;;;;5057298;28;20036;-66
2022/05/08 07:47:23;;;;;;;11.13;8.77;;;17.60;87.10;;;;;;5061401;28;20039;-66
2022/05/08 07:49:48;;;;;;;10.35;8.32;;;18.30;84.50;;;;;;5054322;28;20112;-67
2022/05/08 07:52:14;;;;;;;10.25;7.20;;;18.10;84.40;;;;;;5055701;28;20458;-67
2022/05/08 07:54:39;;;;;;;8.18;6.85;;;18.30;85.50;;;;;;5056451;28;20052;-66
2022/05/08 07:57:05;;;;;;;10.95;7.15;;;19.30;82.40;;;;;;5054335;28;20064;-68
2022/05/08 07:59:31;;;;;;;9.40;7.68;;;19.90;80.70;;;;;;5051631;28;20430;-68
2022/05/08 08:01:57;;;;;;;9.05;7.90;;;20.50;78.60;;;;;;5053802;28;20029;-68
2022/05/08 08:04:22;;;;;;;10.77;7.88;;;20.80;77.50;;;;;;5055587;28;20027;-68
2022/05/08 08:06:48;;;;;;;10.57;7.90;;;21.10;77.20;;;;;;5055035;28;20037;-68
2022/05/08 08:09:13;;;;;;;8.27;6.90;;;21.50;76.20;;;;;;5053348;28;20028;-68
2022/05/08 08:11:41;;;;;;;10.25;7.32;;;20.90;76.30;;;;;;5055125;28;20017;-68
2022/05/08 08:14:06;;;;;;;10.68;8.18;;;20.70;77.10;;;;;;5054790;28;20017;-68
2022/05/08 08:16:32;;;;;;;11.73;8.77;;;20.50;78.10;;;;;;5053302;28;20127;-69
2022/05/08 08:18:58;;;;;;;10.82;7.22;;;20.40;77.80;;;;;;5053506;28;20407;-68
2022/05/08 08:21:24;;;;;;;10.68;7.28;;;20.00;79.20;;;;;;5053680;28;20013;-68
2022/05/08 08:23:50;;;;;;;8.93;7.15;;;20.40;78.10;;;;;;5047531;28;20089;-68
2022/05/08 08:26:16;;;;;;;8.63;7.00;;;20.90;76.80;;;;;;5051879;28;20364;-68
2022/05/08 08:28:41;;;;;;;9.48;7.25;;;20.90;75.60;;;;;;5050501;28;20104;-69
2022/05/08 08:31:08;;;;;;;10.10;7.57;;;20.90;76.50;;;;;;5051765;28;20317;-69
2022/05/08 08:33:44;;;;;;;10.50;7.13;;;21.20;75.70;;;;;;5050070;28;20100;-68
2022/05/08 08:36:10;;;;;;;11.80;8.35;;;21.80;74.20;;;;;;5050131;28;20156;-68
2022/05/08 08:38:40;;;;;;;9.90;7.97;;;21.90;74.70;;;;;;5049508;28;20115;-68
2022/05/08 08:41:09;;;;;;;9.80;7.97;;;21.90;75.90;;;;;;5056448;28;20025;-69
2022/05/08 08:49:34;;;;;;;11.48;9.27;;;21.80;74.70;;;;;;5049533;28;20102;-68
2022/05/08 08:52:00;;;;;;;10.77;8.07;;;21.40;75.30;;;;;;5056861;28;20053;-68
2022/05/08 08:54:26;;;;;;;11.48;9.27;;;21.80;74.60;;;;;;5051558;28;20358;-68
2022/05/08 08:56:52;;;;;;;11.82;7.90;;;22.40;72.20;;;;;;5053164;28;20017;-68
2022/05/08 08:59:17;;;;;;;9.90;8.25;;;22.60;71.20;;;;;;5049981;28;20087;-68
2022/05/08 09:01:46;;;;;;;14.13;7.55;;;22.60;70.50;;;;;;5055525;28;20083;-67
2022/05/08 09:04:15;;;;;;;9.13;7.50;;;22.40;71.80;;;;;;5051242;28;20021;-67
2022/05/08 09:06:45;;;;;;;10.48;7.78;;;22.30;71.40;;;;;;5057656;28;20021;-67
2022/05/08 09:09:34;;;;;;;11.48;9.02;;;22.30;72.20;;;;;;5048216;28;20028;-67
2022/05/08 09:11:59;;;;;;;11.02;8.32;;;22.90;71.30;;;;;;5049693;28;20024;-68
2022/05/08 09:14:36;;;;;;;10.30;7.38;;;23.20;70.90;;;;;;5053940;28;20334;-67
2022/05/08 09:17:05;;;;;;;14.07;8.20;;;23.90;69.10;;;;;;5047633;28;20028;-67
2022/05/08 09:19:40;;;;;;;10.77;7.28;;;24.40;66.80;;;;;;5052191;28;20025;-68
2022/05/08 09:22:08;;;;;;;10.85;8.13;;;23.90;67.70;;;;;;5027744;28;20295;-69
2022/05/08 09:24:35;;;;;;;9.10;7.70;;;23.70;68.00;;;;;;5051500;28;20025;-68
2022/05/08 09:27:17;;;;;;;9.95;8.18;;;23.10;69.30;;;;;;5051952;28;20028;-69
2022/05/08 09:29:48;;;;;;;11.80;8.25;;;22.80;69.80;;;;;;5048202;28;20021;-69
2022/05/08 09:32:34;;;;;;;10.40;7.53;;;23.00;71.00;;;;;;5049657;28;20111;-70
2022/05/08 09:35:01;;;;;;;14.73;7.90;;;23.40;69.30;;;;;;4965356;28;20020;-68
2022/05/08 09:37:30;;;;;;;11.73;9.27;;;23.40;68.60;;;;;;5044589;28;20056;-67
2022/05/08 09:40:16;;;;;;;11.40;7.80;;;23.00;68.60;;;;;;5051583;28;20029;-67
2022/05/08 09:42:42;;;;;;;20.67;12.10;;;22.70;70.30;;;;;;5052460;28;20032;-68
2022/05/08 09:45:09;;;;;;;31.48;14.35;;;23.00;70.10;;;;;;5052434;28;20032;-68
2022/05/08 09:47:42;;;;;;;20.75;11.63;;;23.20;69.70;;;;;;5050188;28;20028;-68
2022/05/08 09:50:09;;;;;;;21.25;11.57;;;23.30;69.20;;;;;;5052636;28;20033;-69
2022/05/08 09:52:40;;;;;;;11.90;8.30;;;23.60;69.50;;;;;;5050489;28;20025;-68
2022/05/08 09:55:12;;;;;;;14.13;8.65;;;23.70;68.70;;;;;;5050122;28;20510;-68
2022/05/08 09:57:39;;;;;;;12.30;8.88;;;22.90;69.60;;;;;;5051392;28;20303;-69
2022/05/08 10:00:07;;;;;;;10.32;7.93;;;22.50;70.90;;;;;;5053966;28;20037;-67
2022/05/08 10:02:34;;;;;;;10.52;9.00;;;22.50;72.10;;;;;;5046395;28;20057;-67
2022/05/08 10:05:01;;;;;;;10.75;8.40;;;22.90;70.90;;;;;;5051925;28;20143;-68
2022/05/08 10:07:28;;;;;;;10.45;7.50;;;23.30;71.80;;;;;;5044542;28;20303;-68
2022/05/08 10:15:30;;;;;;;12.57;8.73;;;22.20;70.00;;;;;;5050045;28;20087;-68
2022/05/08 10:18:27;;;;;;;11.10;7.75;;;21.40;72.20;;;;;;5027873;28;20027;-68
2022/05/08 10:21:03;;;;;;;9.65;7.50;;;20.90;73.80;;;;;;5050480;28;20056;-68
2022/05/08 10:23:43;;;;;;;11.40;8.18;;;21.20;73.20;;;;;;5054569;28;20024;-68
2022/05/08 10:26:20;;;;;;;9.95;7.90;;;21.60;72.40;;;;;;5047112;28;20036;-68
2022/05/08 10:29:13;;;;;;;10.23;7.93;;;21.90;71.80;;;;;;5047528;28;20021;-68
2022/05/08 10:31:45;;;;;;;9.40;7.57;;;22.40;70.50;;;;;;5042879;28;20029;-67
2022/05/08 10:34:15;;;;;;;8.55;6.53;;;22.70;69.00;;;;;;5048019;28;20055;-69
2022/05/08 10:37:17;;;;;;;12.57;7.63;;;22.40;70.70;;;;;;5028354;28;20032;-67
2022/05/08 10:39:51;;;;;;;9.45;7.00;;;23.00;68.10;;;;;;5046750;28;20159;-67
2022/05/08 10:42:45;;;;;;;9.00;6.70;;;22.20;69.80;;;;;;5047502;28;20025;-67
2022/05/08 10:45:43;;;;;;;11.05;7.53;;;22.60;69.50;;;;;;5048513;28;20282;-68
2022/05/08 10:48:10;;;;;;;9.43;6.75;;;22.20;70.00;;;;;;5030733;28;20033;-68
2022/05/08 10:50:37;;;;;;;8.32;6.30;;;22.60;70.60;;;;;;5046621;28;20448;-68
2022/05/08 10:53:03;;;;;;;9.05;7.30;;;23.10;70.00;;;;;;5049013;28;20032;-67
2022/05/08 10:55:29;;;;;;;10.10;7.63;;;23.00;68.60;;;;;;5053223;28;20025;-67
2022/05/08 10:57:57;;;;;;;10.23;7.38;;;22.60;70.40;;;;;;5055362;28;20365;-68
2022/05/08 11:00:30;;;;;;;12.32;7.43;;;22.00;70.80;;;;;;5056885;28;20041;-67
2022/05/08 11:03:04;;;;;;;9.68;6.60;;;22.10;71.40;;;;;;5052862;28;20056;-68
2022/05/08 11:05:33;;;;;;;8.30;6.70;;;22.50;70.20;;;;;;5053897;28;20025;-68
2022/05/08 11:08:12;;;;;;;11.65;7.85;;;23.30;68.10;;;;;;5048790;28;20176;-68
2022/05/08 11:10:42;;;;;;;10.75;7.15;;;23.80;68.40;;;;;;5053270;28;20033;-68
2022/05/08 11:13:13;;;;;;;10.45;7.20;;;23.50;68.60;;;;;;5051693;28;20025;-68
2022/05/08 11:15:46;;;;;;;10.57;7.57;;;23.80;67.70;;;;;;5048670;28;20024;-69
2022/05/08 11:18:26;;;;;;;9.70;7.03;;;23.60;67.70;;;;;;5053213;28;20426;-68
2022/05/08 11:21:00;;;;;;;11.80;7.65;;;22.90;69.40;;;;;;5052724;28;20040;-70
2022/05/08 11:23:42;;;;;;;9.35;6.18;;;23.20;69.20;;;;;;5055196;28;20490;-68
2022/05/08 11:26:12;;;;;;;10.90;7.38;;;22.90;69.40;;;;;;5053180;28;20037;-69
2022/05/08 11:28:55;;;;;;;9.52;7.47;;;23.00;69.50;;;;;;5051851;28;20334;-69
2022/05/08 11:31:23;;;;;;;10.18;6.57;;;22.70;70.90;;;;;;5048018;28;20021;-67
2022/05/08 11:36:40;;;;;;;;;;;23.30;68.60;;;;;;5052889;28;20067;-67
2022/05/08 11:39:17;;;;;;;9.05;6.22;;;23.40;69.20;;;;;;5054322;28;19912;-67
2022/05/08 11:41:44;;;;;;;11.48;7.25;;;22.80;70.80;;;;;;5058332;28;20033;-67
2022/05/08 11:44:13;;;;;;;9.65;7.40;;;23.10;69.80;;;;;;5053033;28;20017;-67
2022/05/08 11:46:44;;;;;;;9.35;7.32;;;23.00;69.40;;;;;;5053369;28;20043;-67
2022/05/08 11:49:17;;;;;;;10.18;7.32;;;23.30;68.70;;;;;;5047290;28;20412;-67
2022/05/08 11:51:48;;;;;;;10.48;8.02;;;23.70;69.00;;;;;;5056185;28;20067;-66
2022/05/08 11:54:40;;;;;;;12.85;8.35;;;23.50;69.00;;;;;;5054084;28;20295;-68
2022/05/08 11:57:11;;;;;;;10.32;7.68;;;22.80;70.50;;;;;;5053062;28;20410;-68
2022/05/08 11:59:37;;;;;;;9.88;7.68;;;22.40;69.40;;;;;;5048554;28;20053;-68
2022/05/08 12:02:03;;;;;;;11.32;7.57;;;21.60;72.00;;;;;;5051205;28;20031;-67
2022/05/08 12:04:36;;;;;;;12.52;7.28;;;21.10;74.60;;;;;;5052179;28;20104;-67
2022/05/08 12:07:05;;;;;;;8.18;6.43;;;21.20;75.30;;;;;;5053803;28;20423;-67
2022/05/08 12:09:33;;;;;;;10.20;7.10;;;21.70;72.20;;;;;;5043740;28;20086;-67
2022/05/08 12:12:28;;;;;;;11.93;7.15;;;22.20;70.80;;;;;;5048174;28;20143;-68
2022/05/08 12:15:20;;;;;;;10.80;6.70;;;22.40;71.00;;;;;;5041296;28;20383;-68
2022/05/08 12:17:49;;;;;;;9.10;6.70;;;22.10;71.20;;;;;;5048875;28;20022;-69
2022/05/08 12:20:26;;;;;;;9.57;6.90;;;22.10;71.50;;;;;;5053913;28;20082;-68
2022/05/08 12:23:07;;;;;;;12.70;6.65;;;21.80;72.40;;;;;;5048159;28;20040;-67
2022/05/08 12:25:44;;;;;;;10.02;6.43;;;21.20;73.20;;;;;;5028217;28;20017;-67
2022/05/08 12:28:12;;;;;;;8.30;6.50;;;20.60;73.90;;;;;;5026885;28;20029;-66
2022/05/08 12:30:38;;;;;;;9.80;7.22;;;20.20;75.80;;;;;;5055471;28;20025;-77
2022/05/08 12:33:05;;;;;;;8.55;6.20;;;20.30;76.00;;;;;;5048823;28;20031;-67
2022/05/08 12:35:31;;;;;;;9.85;6.72;;;20.50;75.10;;;;;;5047713;28;20714;-68
2022/05/08 12:37:57;;;;;;;8.85;6.53;;;20.60;74.10;;;;;;5049333;28;20078;-68
2022/05/08 12:40:23;;;;;;;8.82;5.80;;;20.80;74.60;;;;;;5054702;28;20029;-68
2022/05/08 12:42:53;;;;;;;7.53;5.72;;;21.10;73.70;;;;;;5054508;28;20029;-68
2022/05/08 12:45:25;;;;;;;10.23;5.85;;;20.90;74.80;;;;;;5049395;28;20020;-67
2022/05/08 12:48:04;;;;;;;9.75;5.65;;;21.10;72.70;;;;;;5051157;28;20112;-68
2022/05/08 12:50:31;;;;;;;7.53;4.90;;;21.10;72.20;;;;;;5050487;28;20033;-67
2022/05/08 12:53:00;;;;;;;7.40;4.82;;;20.90;72.50;;;;;;5050159;28;20033;-69
2022/05/08 12:55:25;;;;;;;8.70;5.25;;;20.70;72.80;;;;;;5051393;28;20035;-66
2022/05/08 13:00:35;;;;;;;;;;;20.60;73.20;;;;;;5051248;28;20044;-67
2022/05/08 13:03:01;;;;;;;10.55;5.85;;;20.10;75.80;;;;;;5054413;28;20286;-67
2022/05/08 13:05:27;;;;;;;8.00;5.32;;;19.60;77.10;;;;;;5048483;28;20052;-68
2022/05/08 13:07:54;;;;;;;8.38;5.18;;;19.10;77.80;;;;;;5049633;28;20073;-68
2022/05/08 13:10:20;;;;;;;9.20;5.13;;;18.90;78.30;;;;;;5052529;28;20025;-68
2022/05/08 13:12:45;;;;;;;7.55;5.03;;;18.70;78.80;;;;;;5054980;28;20414;-68
2022/05/08 13:15:12;;;;;;;7.07;4.60;;;18.70;79.30;;;;;;5050255;28;20033;-67
2022/05/08 13:17:38;;;;;;;6.25;4.47;;;18.80;78.40;;;;;;5052553;28;20448;-68